createdAt,value
2022-11-14T00:01:19.406Z,100797.44
2022-11-14T00:04:05.468Z,100792.72
2022-11-14T00:06:51.513Z,100787.63
2022-11-14T00:09:40.613Z,100755.94
2022-11-14T00:12:27.277Z,100769.13
2022-11-14T00:15:14.183Z,100790.16
2022-11-14T00:18:03.974Z,100761.00
2022-11-14T00:20:51.962Z,100791.78
2022-11-14T00:23:38.349Z,100754.53
2022-11-14T00:26:24.630Z,100790.72
2022-11-14T00:29:15.956Z,100786.56
2022-11-14T00:32:02.712Z,100771.16
2022-11-14T00:34:49.826Z,100692.69
2022-11-14T00:37:36.139Z,100770.75
2022-11-14T00:40:22.726Z,100759.19
2022-11-14T00:43:08.991Z,100778.56
2022-11-14T00:45:55.645Z,100768.13
2022-11-14T00:48:42.403Z,100754.94
2022-11-14T00:51:28.645Z,100768.94
2022-11-14T00:54:15.076Z,100726.81
2022-11-14T00:57:01.190Z,100763.78
2022-11-14T00:59:47.366Z,100678.16
2022-11-14T01:02:33.940Z,100766.19
2022-11-14T01:05:20.218Z,100739.16
2022-11-14T01:08:06.203Z,100758.63
2022-11-14T01:10:52.684Z,100758.69
2022-11-14T01:13:39.371Z,100767.31
2022-11-14T01:16:30.349Z,100663.19
2022-11-14T01:19:16.733Z,100745.13
2022-11-14T01:22:06.403Z,100752.13
2022-11-14T01:24:55.277Z,100762.34
2022-11-14T01:27:41.646Z,100759.63
2022-11-14T01:30:27.677Z,100743.81
2022-11-14T01:33:14.221Z,100732.56
2022-11-14T01:36:00.421Z,100738.66
2022-11-14T01:38:51.595Z,100759.19
2022-11-14T01:41:37.756Z,100737.22
2022-11-14T01:44:43.024Z,100750.50
2022-11-14T01:47:32.272Z,100746.72
2022-11-14T01:50:19.209Z,100741.38
2022-11-14T01:53:05.373Z,100732.97
2022-11-14T01:55:53.881Z,100741.81
2022-11-14T01:58:43.874Z,100722.84
2022-11-14T02:01:34.330Z,100737.34
2022-11-14T02:04:31.861Z,100736.75
2022-11-14T02:07:19.209Z,100735.09
2022-11-14T02:10:10.276Z,100691.47
2022-11-14T02:12:56.800Z,100699.75
2022-11-14T02:15:43.267Z,100734.91
2022-11-14T02:18:29.731Z,100702.91
2022-11-14T02:21:16.045Z,100711.22
2022-11-14T02:24:02.686Z,100698.78
2022-11-14T02:26:51.048Z,100688.56
2022-11-14T02:29:37.349Z,100713.66
2022-11-14T02:32:24.022Z,100690.59
2022-11-14T02:35:11.660Z,100697.78
2022-11-14T02:37:57.898Z,100618.09
2022-11-14T02:40:43.914Z,100675.00
2022-11-14T02:43:30.130Z,100690.38
2022-11-14T02:46:16.218Z,100670.84
2022-11-14T02:49:02.436Z,100629.25
2022-11-14T02:51:48.769Z,100634.03
2022-11-14T02:54:34.907Z,100648.09
2022-11-14T02:57:21.185Z,100680.19
2022-11-14T03:00:14.385Z,100644.25
2022-11-14T03:03:01.153Z,100643.25
2022-11-14T03:05:47.471Z,100679.97
2022-11-14T03:08:34.119Z,100669.84
2022-11-14T03:11:20.455Z,100663.25
2022-11-14T03:14:06.881Z,100624.13
2022-11-14T03:16:55.579Z,100648.78
2022-11-14T03:19:42.276Z,100645.38
2022-11-14T03:22:28.253Z,100580.88
2022-11-14T03:25:14.682Z,100607.59
2022-11-14T03:28:01.073Z,100621.47
2022-11-14T03:30:47.303Z,100633.41
2022-11-14T03:33:34.824Z,100623.81
2022-11-14T03:36:21.588Z,100619.97
2022-11-14T03:39:07.767Z,100655.88
2022-11-14T03:41:54.336Z,100614.91
2022-11-14T03:44:40.693Z,100640.41
2022-11-14T03:47:27.901Z,100659.72
2022-11-14T03:50:14.428Z,100659.22
2022-11-14T03:53:01.386Z,100627.84
2022-11-14T03:55:47.912Z,100622.88
2022-11-14T03:58:34.548Z,100636.25
2022-11-14T04:01:20.910Z,100624.00
2022-11-14T04:04:07.438Z,100580.28
2022-11-14T04:06:53.504Z,100552.44
2022-11-14T04:09:40.255Z,100616.22
2022-11-14T04:12:26.839Z,100634.00
2022-11-14T04:15:12.963Z,100594.34
2022-11-14T04:18:00.091Z,100612.38
2022-11-14T04:20:46.437Z,100631.19
2022-11-14T04:23:32.718Z,100605.28
2022-11-14T04:26:18.987Z,100614.19
2022-11-14T04:29:05.312Z,100633.91
2022-11-14T04:31:51.811Z,100615.72
2022-11-14T04:34:39.379Z,100624.81
2022-11-14T04:37:25.739Z,100629.25
2022-11-14T04:40:12.460Z,100627.84
2022-11-14T04:42:58.777Z,100587.09
2022-11-14T04:45:45.169Z,100587.59
2022-11-14T04:48:31.617Z,100617.53
2022-11-14T04:51:18.145Z,100597.91
2022-11-14T04:54:07.157Z,100628.03
2022-11-14T04:56:53.231Z,100591.34
2022-11-14T04:59:39.776Z,100611.88
2022-11-14T05:02:25.992Z,100566.81
2022-11-14T05:05:12.180Z,100597.19
2022-11-14T05:08:01.233Z,100556.22
2022-11-14T05:10:47.543Z,100581.00
2022-11-14T05:13:34.018Z,100565.53
2022-11-14T05:16:20.557Z,100619.56
2022-11-14T05:19:06.417Z,100602.16
2022-11-14T05:21:53.948Z,100628.03
2022-11-14T05:24:40.312Z,100617.13
2022-11-14T05:27:26.384Z,100603.66
2022-11-14T05:30:16.179Z,100622.56
2022-11-14T05:33:02.726Z,100622.19
2022-11-14T05:35:48.962Z,100637.97
2022-11-14T05:38:35.696Z,100620.88
2022-11-14T05:41:22.074Z,100637.56
2022-11-14T05:44:13.657Z,100640.72
2022-11-14T05:46:59.882Z,100594.13
2022-11-14T05:49:49.056Z,100650.44
2022-11-14T05:52:35.318Z,100625.22
2022-11-14T05:55:24.938Z,100666.19
2022-11-14T05:58:11.234Z,100657.00
2022-11-14T06:01:09.690Z,100647.38
2022-11-14T06:03:56.241Z,100644.97
2022-11-14T06:06:42.391Z,100619.88
2022-11-14T06:09:29.147Z,100597.88
2022-11-14T06:12:15.401Z,100644.16
2022-11-14T06:15:01.565Z,100649.50
2022-11-14T06:17:48.093Z,100657.78
2022-11-14T06:20:34.588Z,100649.31
2022-11-14T06:23:24.749Z,100575.41
2022-11-14T06:26:23.492Z,100642.81
2022-11-14T06:29:10.682Z,100654.16
2022-11-14T06:31:57.268Z,100642.50
2022-11-14T06:34:43.267Z,100625.22
2022-11-14T06:37:33.437Z,100608.63
2022-11-14T06:40:20.223Z,100643.63
2022-11-14T06:43:06.407Z,100645.25
2022-11-14T06:45:55.229Z,100617.72
2022-11-14T06:48:42.978Z,100638.97
2022-11-14T06:51:29.112Z,100534.59
2022-11-14T06:54:15.604Z,100591.34
2022-11-14T06:57:01.836Z,100629.78
2022-11-14T06:59:49.266Z,100646.75
2022-11-14T07:02:35.893Z,100641.41
2022-11-14T07:05:21.938Z,100635.94
2022-11-14T07:08:08.110Z,100643.84
2022-11-14T07:10:54.468Z,100656.00
2022-11-14T07:13:40.594Z,100662.84
2022-11-14T07:16:33.168Z,100672.66
2022-11-14T07:19:19.179Z,100681.88
2022-11-14T07:22:06.325Z,100649.31
2022-11-14T07:24:52.747Z,100640.63
2022-11-14T07:27:39.118Z,100656.16
2022-11-14T07:30:27.183Z,100658.19
2022-11-14T07:33:13.365Z,100689.38
2022-11-14T07:35:59.932Z,100683.41
2022-11-14T07:38:46.492Z,100688.06
2022-11-14T07:41:32.878Z,100686.53
2022-11-14T07:44:19.209Z,100695.63
2022-11-14T07:47:05.917Z,100692.00
2022-11-14T07:49:52.320Z,100675.41
2022-11-14T07:52:38.453Z,100679.66
2022-11-14T07:55:25.130Z,100667.00
2022-11-14T07:58:12.160Z,100653.34
2022-11-14T08:01:02.732Z,100662.44
2022-11-14T08:03:49.345Z,100665.78
2022-11-14T08:06:35.515Z,100691.78
2022-11-14T08:09:23.410Z,100659.94
2022-11-14T08:12:10.697Z,100657.81
2022-11-14T08:14:56.861Z,100707.59
2022-11-14T08:17:43.377Z,100675.19
2022-11-14T08:20:30.557Z,100681.69
2022-11-14T08:23:16.870Z,100680.47
2022-11-14T08:26:03.341Z,100713.56
2022-11-14T08:28:54.387Z,100716.22
2022-11-14T08:31:40.614Z,100716.31
2022-11-14T08:34:26.799Z,100660.81
2022-11-14T08:37:12.883Z,100677.53
2022-11-14T08:39:59.477Z,100714.97
2022-11-14T08:42:46.168Z,100712.66
2022-11-14T08:45:32.313Z,100707.06
2022-11-14T08:48:18.956Z,100731.69
2022-11-14T08:51:07.071Z,100729.25
2022-11-14T08:53:53.289Z,100688.16
2022-11-14T08:56:39.686Z,100699.00
2022-11-14T08:59:25.793Z,100694.84
2022-11-14T09:02:13.791Z,100719.44
2022-11-14T09:05:00.428Z,100721.06
2022-11-14T09:07:46.921Z,100704.06
2022-11-14T09:10:34.962Z,100731.69
2022-11-14T09:13:22.086Z,100704.34
